Time;durP1;ratioP1;P1;durP2;ratioP2;P2;SDS_P1;SDS_P2;PMS_P1;PMS_P2;Temp;Humidity;BMP_temperature;BMP_pressure;BME280_temperature;BME280_humidity;BME280_pressure;Samples;Min_cycle;Max_cycle;Signal;HPM_P1;HPM_P2
2021/08/02 00:00:24;;;;;;;5.23;4.30;;;15.70;99.90;;;;;;5065300;28;20210;-61
2021/08/02 00:02:49;;;;;;;4.87;4.43;;;15.60;99.90;;;;;;5055031;28;20203;-56
2021/08/02 00:05:17;;;;;;;4.10;3.70;;;15.60;99.90;;;;;;5054954;28;20171;-58
2021/08/02 00:07:45;;;;;;;4.40;4.00;;;15.50;99.90;;;;;;5055405;28;20685;-55
2021/08/02 00:10:14;;;;;;;4.40;4.00;;;15.50;99.90;;;;;;5054504;28;20200;-62
2021/08/02 00:12:50;;;;;;;4.90;4.30;;;15.50;99.90;;;;;;5054910;28;20175;-59
2021/08/02 00:15:18;;;;;;;4.77;4.37;;;15.50;99.90;;;;;;5055434;28;20165;-62
2021/08/02 00:17:45;;;;;;;4.70;4.30;;;15.60;99.90;;;;;;5054524;28;20585;-57
2021/08/02 00:20:13;;;;;;;5.57;4.10;;;15.70;99.90;;;;;;5055181;28;20182;-58
2021/08/02 00:22:39;;;;;;;4.07;3.77;;;15.60;99.90;;;;;;5054055;28;20237;-54
2021/08/02 00:25:06;;;;;;;6.83;4.37;;;15.60;99.90;;;;;;5055095;28;20175;-54
2021/08/02 00:27:32;;;;;;;4.43;3.90;;;15.70;99.90;;;;;;5054300;28;20692;-60
2021/08/02 00:29:59;;;;;;;6.43;4.60;;;15.70;99.90;;;;;;5054495;28;20199;-61
2021/08/02 00:32:24;;;;;;;6.70;4.50;;;15.70;99.90;;;;;;5053159;28;20185;-58
2021/08/02 00:34:50;;;;;;;6.40;4.33;;;15.60;99.90;;;;;;5054278;28;20262;-53
2021/08/02 00:37:21;;;;;;;4.43;3.90;;;15.60;99.90;;;;;;5054110;28;20175;-59
2021/08/02 00:39:46;;;;;;;6.37;4.47;;;15.60;99.90;;;;;;5054870;28;20205;-61
2021/08/02 00:42:49;;;;;;;8.03;4.73;;;15.50;99.90;;;;;;5053727;28;20263;-62
2021/08/02 00:45:23;;;;;;;4.90;4.27;;;15.60;99.90;;;;;;5054461;28;20173;-61
2021/08/02 00:48:06;;;;;;;5.97;4.40;;;15.60;99.90;;;;;;5054771;28;20246;-53
2021/08/02 00:50:43;;;;;;;5.30;4.43;;;15.70;99.90;;;;;;5053995;28;20563;-61
2021/08/02 00:53:11;;;;;;;4.60;4.10;;;15.80;99.90;;;;;;5053798;28;20187;-52
2021/08/02 00:55:41;;;;;;;4.83;4.33;;;15.90;99.90;;;;;;5053669;28;20170;-61
2021/08/02 00:58:10;;;;;;;4.17;3.83;;;16.00;99.90;;;;;;5053822;28;20175;-60
2021/08/02 01:00:36;;;;;;;6.33;4.90;;;16.00;99.90;;;;;;5054326;28;20171;-62
2021/08/02 01:03:10;;;;;;;5.67;5.00;;;15.90;99.90;;;;;;5053667;28;20198;-58
2021/08/02 01:05:37;;;;;;;4.40;4.00;;;16.00;99.90;;;;;;5054594;28;20175;-53
2021/08/02 01:08:13;;;;;;;6.80;4.37;;;16.00;99.90;;;;;;5054587;28;20191;-55
2021/08/02 01:10:45;;;;;;;4.80;4.30;;;16.00;99.90;;;;;;5054044;28;20626;-55
2021/08/02 01:13:16;;;;;;;7.10;5.50;;;16.00;99.90;;;;;;5055426;28;20199;-61
2021/08/02 01:15:45;;;;;;;5.00;4.50;;;16.00;99.90;;;;;;5054780;28;20166;-52
2021/08/02 01:18:12;;;;;;;5.27;4.77;;;16.10;99.90;;;;;;5054066;28;20216;-56
2021/08/02 01:20:44;;;;;;;6.27;5.57;;;16.20;99.90;;;;;;5053382;28;20179;-61
2021/08/02 01:23:13;;;;;;;7.00;5.00;;;16.10;99.90;;;;;;5053356;28;20269;-57
2021/08/02 01:25:39;;;;;;;5.77;5.27;;;16.00;99.90;;;;;;5053790;28;20182;-62
2021/08/02 01:28:13;;;;;;;6.43;5.03;;;16.00;99.90;;;;;;5054449;28;20168;-63
2021/08/02 01:30:44;;;;;;;5.23;4.67;;;16.00;99.90;;;;;;5053878;28;20665;-60
2021/08/02 01:33:09;;;;;;;9.90;5.10;;;15.90;99.90;;;;;;5053878;28;20198;-52
2021/08/02 01:35:36;;;;;;;5.93;5.10;;;15.80;99.90;;;;;;5053360;28;20163;-58
2021/08/02 01:38:02;;;;;;;5.00;4.57;;;15.70;99.90;;;;;;5054490;28;20168;-63
2021/08/02 01:40:29;;;;;;;8.10;5.10;;;15.70;99.90;;;;;;5054682;28;20180;-55
2021/08/02 01:42:55;;;;;;;5.17;4.67;;;15.70;99.90;;;;;;5055707;28;20673;-63
2021/08/02 01:45:20;;;;;;;6.33;5.47;;;15.80;99.90;;;;;;5058229;28;20262;-62
2021/08/02 01:48:10;;;;;;;5.03;4.53;;;15.80;99.90;;;;;;5057270;28;20627;-55
2021/08/02 01:50:39;;;;;;;5.23;4.73;;;15.80;99.90;;;;;;5058154;28;20248;-51
2021/08/02 01:53:28;;;;;;;5.50;4.97;;;15.80;99.90;;;;;;5057197;28;20183;-57
2021/08/02 01:56:06;;;;;;;5.67;4.70;;;15.80;99.90;;;;;;5058747;28;20217;-59
2021/08/02 01:58:40;;;;;;;5.73;4.77;;;15.80;99.90;;;;;;5057547;28;20174;-59
2021/08/02 02:01:08;;;;;;;4.60;4.20;;;15.90;99.90;;;;;;5057863;28;20280;-61
2021/08/02 02:03:36;;;;;;;5.33;4.70;;;15.80;99.90;;;;;;5057256;28;20286;-57
2021/08/02 02:06:11;;;;;;;7.93;4.70;;;15.80;99.90;;;;;;5057039;28;20574;-58
2021/08/02 02:08:52;;;;;;;6.33;4.40;;;15.80;99.90;;;;;;5056863;28;20266;-61
2021/08/02 02:11:18;;;;;;;5.03;4.53;;;15.80;99.90;;;;;;5056927;28;20199;-53
2021/08/02 02:13:52;;;;;;;4.53;4.13;;;15.90;99.90;;;;;;5057106;28;20194;-62
2021/08/02 02:16:19;;;;;;;5.10;4.70;;;15.80;99.90;;;;;;5057119;28;20163;-52
2021/08/02 02:18:49;;;;;;;5.37;4.77;;;15.70;99.90;;;;;;5057231;28;20172;-63
2021/08/02 02:21:17;;;;;;;8.70;5.13;;;15.60;99.90;;;;;;5056530;28;20192;-61
2021/08/02 02:23:44;;;;;;;8.20;5.03;;;15.50;99.90;;;;;;5056797;28;20578;-60
2021/08/02 02:26:11;;;;;;;4.83;4.33;;;15.40;99.90;;;;;;5056543;28;20640;-52
2021/08/02 02:28:38;;;;;;;5.70;4.33;;;15.40;99.90;;;;;;5056913;28;20258;-52
2021/08/02 02:31:04;;;;;;;4.70;4.30;;;15.30;99.90;;;;;;5056471;28;20219;-57
2021/08/02 02:33:32;;;;;;;6.27;4.60;;;15.30;99.90;;;;;;5056806;28;20222;-55
2021/08/02 02:35:58;;;;;;;5.73;4.40;;;15.30;99.90;;;;;;5056528;28;20494;-56
2021/08/02 02:38:24;;;;;;;6.37;4.90;;;15.30;99.90;;;;;;5056688;28;20178;-63
2021/08/02 02:40:50;;;;;;;5.80;5.17;;;15.30;99.90;;;;;;5072052;28;20250;-51
2021/08/02 02:43:16;;;;;;;6.17;5.20;;;15.30;99.90;;;;;;5056059;28;20191;-62
2021/08/02 02:45:45;;;;;;;5.30;4.80;;;15.40;99.90;;;;;;5057204;28;20182;-62
2021/08/02 02:48:12;;;;;;;5.83;4.53;;;15.40;99.90;;;;;;5057091;28;20179;-53
2021/08/02 02:50:38;;;;;;;8.47;4.53;;;15.40;99.90;;;;;;5056160;28;20207;-61
2021/08/02 02:53:05;;;;;;;4.93;4.43;;;15.30;99.90;;;;;;5056015;28;20187;-52
2021/08/02 02:55:32;;;;;;;4.67;4.27;;;15.30;99.90;;;;;;5055793;28;20167;-62
2021/08/02 02:57:59;;;;;;;5.47;4.97;;;15.30;99.90;;;;;;5056060;28;20171;-58
2021/08/02 03:00:24;;;;;;;5.90;5.30;;;15.30;99.90;;;;;;5056708;28;20195;-59
2021/08/02 03:02:54;;;;;;;4.60;4.20;;;15.30;99.90;;;;;;5055635;28;20675;-58
2021/08/02 03:05:22;;;;;;;8.93;4.43;;;15.30;99.90;;;;;;5056015;28;20179;-53
2021/08/02 03:07:56;;;;;;;5.60;5.00;;;15.30;99.90;;;;;;5056304;28;20639;-61
2021/08/02 03:10:23;;;;;;;4.53;4.13;;;15.30;99.90;;;;;;5055805;28;20230;-57
2021/08/02 03:12:51;;;;;;;5.30;4.60;;;15.40;99.90;;;;;;5055664;28;20260;-61
2021/08/02 03:15:17;;;;;;;5.73;4.57;;;15.50;99.90;;;;;;5056191;28;20175;-62
2021/08/02 03:17:43;;;;;;;5.37;4.47;;;15.50;99.90;;;;;;5055912;28;20217;-62
2021/08/02 03:20:09;;;;;;;5.87;4.30;;;15.50;99.90;;;;;;5055883;28;20175;-59
2021/08/02 03:22:41;;;;;;;4.90;4.10;;;15.50;99.90;;;;;;5055209;28;20179;-53
2021/08/02 03:25:29;;;;;;;6.27;4.20;;;15.50;99.90;;;;;;5056399;28;20221;-63
2021/08/02 03:28:06;;;;;;;4.23;3.83;;;15.50;99.90;;;;;;5055971;28;20186;-57
2021/08/02 03:30:36;;;;;;;5.33;3.90;;;15.50;99.90;;;;;;5056057;28;20199;-54
2021/08/02 03:33:05;;;;;;;5.00;4.60;;;15.60;99.90;;;;;;5055583;28;20193;-58
2021/08/02 03:35:31;;;;;;;5.07;4.53;;;15.60;99.90;;;;;;5055959;28;20163;-52
2021/08/02 03:37:57;;;;;;;5.10;3.97;;;15.60;99.90;;;;;;5055122;28;20171;-54
2021/08/02 03:40:23;;;;;;;4.90;4.20;;;15.80;99.90;;;;;;5055470;28;20615;-52
2021/08/02 03:42:50;;;;;;;4.80;4.30;;;15.70;99.90;;;;;;5056215;28;20202;-51
2021/08/02 03:45:19;;;;;;;4.40;4.00;;;15.80;99.90;;;;;;5055794;28;20183;-63
2021/08/02 03:47:45;;;;;;;4.77;4.30;;;15.80;99.90;;;;;;5055947;28;20176;-55
2021/08/02 03:50:11;;;;;;;6.10;4.60;;;15.80;99.90;;;;;;5055928;28;20195;-54
2021/08/02 03:52:37;;;;;;;5.30;4.67;;;15.70;99.90;;;;;;5055142;28;20245;-61
2021/08/02 03:55:05;;;;;;;4.47;4.07;;;15.70;99.90;;;;;;5055258;28;20167;-60
2021/08/02 03:57:32;;;;;;;5.67;4.30;;;15.60;99.90;;;;;;5055280;28;20512;-63
2021/08/02 03:59:58;;;;;;;4.43;3.77;;;15.60;99.90;;;;;;5055066;28;20511;-58
2021/08/02 04:02:23;;;;;;;7.90;4.30;;;15.60;99.90;;;;;;5070789;28;20695;-59
2021/08/02 04:04:49;;;;;;;6.03;4.37;;;15.50;99.90;;;;;;5055684;28;20174;-57
2021/08/02 04:07:15;;;;;;;5.30;4.43;;;15.50;99.90;;;;;;5055394;28;20167;-62
2021/08/02 04:09:40;;;;;;;5.13;4.63;;;16.40;99.90;;;;;;5055077;28;20249;-61
2021/08/02 04:12:09;;;;;;;4.50;4.10;;;15.50;99.90;;;;;;5055223;28;20256;-61
2021/08/02 04:14:35;;;;;;;7.33;4.13;;;15.40;99.90;;;;;;5055081;28;20191;-54
2021/08/02 04:17:01;;;;;;;6.03;4.13;;;15.50;99.90;;;;;;5055854;28;20612;-63
2021/08/02 04:19:26;;;;;;;5.27;4.17;;;15.40;99.90;;;;;;5054459;28;20190;-61
2021/08/02 04:21:52;;;;;;;4.70;4.27;;;15.40;99.90;;;;;;5055749;28;20504;-55
2021/08/02 04:24:17;;;;;;;5.07;4.57;;;15.40;99.90;;;;;;5054585;28;20597;-52
2021/08/02 04:26:43;;;;;;;4.40;4.00;;;15.30;99.90;;;;;;5055241;28;20203;-55
2021/08/02 04:29:09;;;;;;;8.43;4.60;;;15.30;99.90;;;;;;5054552;28;20171;-62
2021/08/02 04:31:34;;;;;;;6.40;4.60;;;15.30;99.90;;;;;;5055687;28;20207;-63
2021/08/02 04:34:00;;;;;;;6.07;4.60;;;15.30;99.90;;;;;;5062894;28;20198;-54
2021/08/02 04:36:25;;;;;;;6.03;4.50;;;15.40;99.90;;;;;;5073997;28;20618;-52
2021/08/02 04:38:52;;;;;;;5.13;4.30;;;15.50;99.90;;;;;;5075168;28;20173;-63
2021/08/02 04:41:17;;;;;;;6.13;4.30;;;15.50;99.90;;;;;;5074544;28;20203;-58
2021/08/02 04:43:43;;;;;;;4.83;4.30;;;15.50;99.90;;;;;;5074567;28;20210;-51
2021/08/02 04:46:09;;;;;;;5.30;4.30;;;15.40;99.90;;;;;;5074772;28;20640;-54
2021/08/02 04:48:34;;;;;;;4.03;3.73;;;15.40;99.90;;;;;;5074867;28;20261;-62
2021/08/02 04:51:00;;;;;;;6.63;4.07;;;15.30;99.90;;;;;;5074303;28;20290;-52
2021/08/02 04:53:25;;;;;;;4.53;4.10;;;15.40;99.90;;;;;;5075484;28;20195;-63
2021/08/02 04:55:51;;;;;;;5.40;4.10;;;15.50;99.90;;;;;;5059000;28;20187;-59
2021/08/02 04:58:17;;;;;;;4.23;3.87;;;15.40;99.90;;;;;;5054113;28;20172;-52
2021/08/02 05:00:42;;;;;;;4.30;3.90;;;15.40;99.90;;;;;;5054529;28;20186;-53
2021/08/02 05:03:08;;;;;;;5.17;4.60;;;15.40;99.90;;;;;;5053411;28;20551;-51
2021/08/02 05:05:33;;;;;;;4.97;3.90;;;15.40;99.90;;;;;;5054653;28;20611;-63
2021/08/02 05:07:59;;;;;;;4.73;4.03;;;15.30;99.90;;;;;;5055165;28;20175;-60
2021/08/02 05:10:24;;;;;;;4.27;3.87;;;15.40;99.90;;;;;;5055174;28;20211;-61
2021/08/02 05:12:51;;;;;;;12.60;4.37;;;15.50;99.90;;;;;;5054310;28;20191;-53
2021/08/02 05:15:17;;;;;;;5.40;4.10;;;15.50;99.90;;;;;;5054000;28;20171;-62
2021/08/02 05:17:42;;;;;;;5.60;3.87;;;15.60;99.90;;;;;;5053534;28;20551;-61
2021/08/02 05:20:08;;;;;;;4.97;3.97;;;15.60;99.90;;;;;;5054700;28;20179;-52
2021/08/02 05:22:34;;;;;;;4.53;4.13;;;15.60;99.90;;;;;;5053002;28;20202;-52
2021/08/02 05:25:00;;;;;;;5.30;3.90;;;15.60;99.90;;;;;;5055218;28;20175;-61
2021/08/02 05:27:26;;;;;;;4.47;3.73;;;15.40;99.90;;;;;;5054270;28;20183;-53
2021/08/02 05:29:52;;;;;;;5.73;4.17;;;15.30;99.90;;;;;;5053478;28;20178;-62
2021/08/02 05:32:18;;;;;;;5.63;4.40;;;15.40;99.90;;;;;;5053243;28;20168;-53
2021/08/02 05:34:44;;;;;;;4.03;3.70;;;15.40;99.90;;;;;;5053710;28;20190;-63
2021/08/02 05:37:11;;;;;;;4.90;4.00;;;15.40;99.90;;;;;;5068660;28;20191;-52
2021/08/02 05:39:38;;;;;;;4.77;4.27;;;15.50;99.90;;;;;;5073022;28;20181;-63
2021/08/02 05:42:04;;;;;;;8.00;4.67;;;15.70;99.90;;;;;;5074860;28;20189;-62
2021/08/02 05:44:31;;;;;;;4.67;3.70;;;15.70;99.90;;;;;;5072546;28;20285;-53
2021/08/02 05:46:56;;;;;;;5.73;3.93;;;15.80;99.90;;;;;;5073566;28;20182;-55
2021/08/02 05:49:22;;;;;;;4.67;3.60;;;15.90;99.90;;;;;;5074155;28;20526;-52
2021/08/02 05:51:49;;;;;;;6.37;4.30;;;16.10;99.90;;;;;;5073921;28;20654;-62
2021/08/02 05:54:15;;;;;;;7.57;4.10;;;16.30;99.90;;;;;;5074397;28;20277;-53
2021/08/02 05:56:41;;;;;;;4.80;4.30;;;16.10;99.90;;;;;;5077630;28;20549;-54
2021/08/02 05:59:06;;;;;;;3.93;3.53;;;16.20;99.90;;;;;;5075189;28;20679;-53
2021/08/02 06:01:32;;;;;;;4.60;3.80;;;16.20;99.90;;;;;;5073447;28;20182;-51
2021/08/02 06:03:57;;;;;;;4.60;3.83;;;16.30;99.90;;;;;;5076456;28;20197;-59
2021/08/02 06:06:23;;;;;;;5.03;3.63;;;16.30;99.90;;;;;;5074273;28;20186;-56
2021/08/02 06:08:49;;;;;;;6.57;3.97;;;16.30;99.90;;;;;;5073207;28;20198;-62
2021/08/02 06:11:14;;;;;;;4.30;3.90;;;16.40;99.90;;;;;;5073781;28;20213;-51
2021/08/02 06:13:40;;;;;;;4.33;3.87;;;16.40;99.90;;;;;;5073582;28;20226;-51
2021/08/02 06:16:05;;;;;;;6.00;4.43;;;16.50;99.90;;;;;;5072840;28;20183;-58
2021/08/02 06:18:31;;;;;;;7.20;4.20;;;16.50;99.90;;;;;;5073521;28;20171;-53
2021/08/02 06:20:56;;;;;;;5.20;4.37;;;16.40;99.90;;;;;;5072862;28;20183;-57
2021/08/02 06:23:22;;;;;;;7.40;4.13;;;16.20;99.90;;;;;;5072344;28;20254;-61
2021/08/02 06:25:48;;;;;;;5.67;4.53;;;16.10;99.90;;;;;;5073363;28;20260;-51
2021/08/02 06:28:13;;;;;;;5.27;4.57;;;16.00;99.90;;;;;;5072738;28;20182;-60
2021/08/02 06:30:39;;;;;;;5.53;4.77;;;16.00;99.90;;;;;;5075245;28;20244;-54
2021/08/02 06:33:04;;;;;;;5.47;4.97;;;15.90;99.90;;;;;;5077231;28;20191;-58
2021/08/02 06:35:30;;;;;;;7.53;4.83;;;16.00;99.90;;;;;;5076547;28;20175;-52
2021/08/02 06:37:55;;;;;;;6.67;5.07;;;16.10;99.90;;;;;;5076472;28;20518;-61
2021/08/02 06:40:21;;;;;;;7.70;5.20;;;16.00;99.90;;;;;;5080396;28;20176;-54
2021/08/02 06:42:47;;;;;;;7.37;5.53;;;16.10;99.90;;;;;;5078639;28;20230;-62
2021/08/02 06:45:13;;;;;;;6.63;5.20;;;16.10;99.90;;;;;;5079138;28;20271;-53
2021/08/02 06:47:40;;;;;;;5.43;4.93;;;16.30;99.90;;;;;;5076111;28;20171;-56
2021/08/02 06:50:06;;;;;;;6.17;5.10;;;16.40;99.90;;;;;;5076051;28;20682;-55
2021/08/02 06:52:32;;;;;;;5.43;4.93;;;16.30;99.90;;;;;;5080299;28;20236;-63
2021/08/02 06:54:58;;;;;;;5.87;5.10;;;16.30;99.90;;;;;;5077038;28;20214;-63
2021/08/02 06:57:23;;;;;;;5.37;4.83;;;16.20;99.90;;;;;;5077752;28;20182;-62
2021/08/02 06:59:53;;;;;;;6.73;5.30;;;16.30;99.90;;;;;;5080912;28;20251;-54
2021/08/02 07:02:19;;;;;;;7.03;5.37;;;16.30;99.90;;;;;;5076272;28;20176;-63
2021/08/02 07:04:44;;;;;;;5.03;4.53;;;16.50;99.90;;;;;;5078570;28;20191;-63
2021/08/02 07:07:10;;;;;;;5.13;4.63;;;16.60;99.90;;;;;;5077521;28;20171;-60
2021/08/02 07:09:36;;;;;;;5.20;4.70;;;16.60;99.90;;;;;;5078192;28;20195;-53
2021/08/02 07:12:02;;;;;;;8.03;4.97;;;16.70;99.90;;;;;;5076191;28;20680;-51
2021/08/02 07:14:27;;;;;;;5.20;4.03;;;16.60;99.90;;;;;;5078908;28;20201;-54
2021/08/02 07:16:53;;;;;;;5.10;4.70;;;16.60;99.90;;;;;;5078261;28;20694;-52
2021/08/02 07:19:18;;;;;;;6.60;4.80;;;16.60;99.90;;;;;;5079790;28;20186;-61
2021/08/02 07:21:44;;;;;;;6.60;5.30;;;16.60;99.90;;;;;;5075554;28;20250;-60
2021/08/02 07:24:09;;;;;;;4.87;4.40;;;16.60;99.90;;;;;;5079358;28;20202;-55
2021/08/02 07:26:35;;;;;;;8.60;5.17;;;16.60;99.90;;;;;;5076200;28;20182;-57
2021/08/02 07:29:02;;;;;;;5.20;4.70;;;16.60;99.90;;;;;;5077598;28;20626;-58
2021/08/02 07:31:28;;;;;;;5.33;4.70;;;16.60;99.90;;;;;;5074885;28;20227;-54
2021/08/02 07:33:54;;;;;;;5.57;5.07;;;16.70;99.90;;;;;;5082371;28;20625;-63
2021/08/02 07:36:20;;;;;;;5.33;4.83;;;16.80;99.90;;;;;;5080370;28;20175;-55
2021/08/02 07:38:46;;;;;;;5.10;4.30;;;16.80;99.90;;;;;;5075434;28;20227;-55
2021/08/02 07:41:12;;;;;;;4.90;4.50;;;16.90;99.90;;;;;;5078126;28;20177;-50
2021/08/02 07:43:38;;;;;;;4.87;4.47;;;17.00;99.90;;;;;;5068076;28;20210;-63
2021/08/02 07:46:04;;;;;;;4.97;4.50;;;17.00;99.90;;;;;;5065802;28;20186;-51
2021/08/02 07:48:29;;;;;;;5.50;4.60;;;17.00;99.90;;;;;;5067327;28;20266;-61
2021/08/02 07:50:55;;;;;;;5.40;4.90;;;16.90;99.90;;;;;;5066081;28;20532;-56
2021/08/02 07:53:21;;;;;;;6.17;4.60;;;16.90;99.90;;;;;;5073485;28;20195;-51
2021/08/02 07:55:47;;;;;;;5.00;4.50;;;17.00;99.90;;;;;;5068030;28;20174;-60
2021/08/02 07:58:12;;;;;;;4.80;4.37;;;17.10;99.90;;;;;;5071032;28;20240;-60
2021/08/02 08:00:38;;;;;;;4.53;4.13;;;17.10;99.90;;;;;;5071521;28;20420;-53
2021/08/02 08:03:03;;;;;;;5.00;4.50;;;17.20;99.90;;;;;;5069595;28;20217;-60
2021/08/02 08:05:29;;;;;;;4.50;4.10;;;17.20;99.90;;;;;;5066958;28;20179;-62
2021/08/02 08:07:55;;;;;;;4.73;4.23;;;17.30;99.90;;;;;;5064321;28;20231;-62
2021/08/02 08:10:23;;;;;;;4.50;4.10;;;17.30;99.90;;;;;;5064108;28;20213;-52
2021/08/02 08:12:50;;;;;;;4.47;4.07;;;17.40;99.90;;;;;;5062332;28;20202;-51
2021/08/02 08:15:17;;;;;;;4.40;4.00;;;17.40;99.90;;;;;;5063716;28;20182;-60
2021/08/02 08:17:43;;;;;;;4.93;3.93;;;17.60;99.90;;;;;;5063708;28;20221;-62
2021/08/02 08:20:11;;;;;;;4.30;3.87;;;17.80;99.90;;;;;;5064794;28;20717;-61
2021/08/02 08:22:37;;;;;;;4.17;3.83;;;17.90;99.90;;;;;;5067180;28;20233;-51
2021/08/02 08:25:04;;;;;;;4.27;3.50;;;17.90;99.90;;;;;;5064625;28;20178;-52
2021/08/02 08:27:30;;;;;;;4.90;3.70;;;17.80;99.90;;;;;;5058288;28;20252;-62
2021/08/02 08:29:56;;;;;;;5.00;3.70;;;17.80;99.90;;;;;;5066502;28;20175;-59
2021/08/02 08:32:21;;;;;;;3.97;3.57;;;17.80;99.90;;;;;;5064700;28;20180;-61
2021/08/02 08:34:47;;;;;;;4.53;3.33;;;17.90;99.90;;;;;;5065928;28;20225;-54
2021/08/02 08:37:13;;;;;;;3.57;3.27;;;18.10;99.90;;;;;;5066125;28;20202;-62
2021/08/02 08:39:39;;;;;;;3.93;3.63;;;18.20;99.90;;;;;;5065521;28;20180;-54
2021/08/02 08:42:05;;;;;;;3.90;3.57;;;18.20;99.90;;;;;;5064650;28;20246;-62
2021/08/02 08:44:31;;;;;;;4.30;3.40;;;18.10;99.90;;;;;;5066863;28;20252;-61
2021/08/02 08:46:57;;;;;;;3.23;2.90;;;17.90;99.90;;;;;;5065639;28;20171;-50
2021/08/02 08:49:23;;;;;;;3.30;3.00;;;18.10;99.90;;;;;;5065150;28;20194;-61
2021/08/02 08:51:48;;;;;;;3.90;3.17;;;18.20;99.90;;;;;;5046469;28;20741;-58
2021/08/02 08:54:14;;;;;;;5.37;3.37;;;18.40;99.90;;;;;;5066848;28;20209;-51
2021/08/02 08:56:40;;;;;;;5.17;3.10;;;18.60;99.90;;;;;;5066768;28;20202;-62
2021/08/02 08:59:08;;;;;;;3.20;2.90;;;18.50;99.90;;;;;;5065964;28;20193;-50
2021/08/02 09:01:33;;;;;;;3.97;3.10;;;18.60;99.90;;;;;;5063784;28;20635;-62
2021/08/02 09:04:01;;;;;;;3.07;2.70;;;19.30;99.90;;;;;;5072734;28;20198;-59
2021/08/02 09:06:27;;;;;;;2.63;2.43;;;18.70;99.90;;;;;;5071809;28;20190;-59
2021/08/02 09:08:53;;;;;;;3.40;2.93;;;18.70;99.90;;;;;;5054290;28;20269;-58
2021/08/02 09:11:20;;;;;;;3.37;3.07;;;18.80;99.90;;;;;;5054089;28;20199;-62
2021/08/02 09:13:47;;;;;;;3.67;3.27;;;18.90;99.90;;;;;;5054493;28;20219;-51
2021/08/02 09:16:22;;;;;;;3.07;2.77;;;19.30;99.90;;;;;;5054202;28;20194;-63
2021/08/02 09:18:59;;;;;;;3.03;2.57;;;19.30;99.90;;;;;;5053938;28;20253;-60
2021/08/02 09:21:26;;;;;;;2.93;2.67;;;19.30;99.90;;;;;;5057062;28;20217;-51
2021/08/02 09:23:54;;;;;;;4.40;2.60;;;19.60;99.90;;;;;;5087145;28;20234;-59
2021/08/02 09:26:33;;;;;;;2.67;2.47;;;20.20;99.90;;;;;;5064607;28;20175;-55
2021/08/02 09:28:58;;;;;;;4.13;2.30;;;20.20;99.90;;;;;;5051807;28;20187;-53
2021/08/02 09:31:38;;;;;;;2.50;2.30;;;19.90;99.90;;;;;;5054004;28;20567;-61
2021/08/02 09:34:06;;;;;;;2.78;2.45;;;19.90;99.90;;;;;;5061769;28;20565;-63
2021/08/02 09:36:43;;;;;;;2.53;2.33;;;20.00;99.90;;;;;;5056168;28;20175;-58
2021/08/02 09:39:11;;;;;;;4.03;2.78;;;20.10;99.90;;;;;;5055884;28;20218;-58
2021/08/02 09:41:37;;;;;;;3.50;2.30;;;20.00;99.90;;;;;;5052777;28;20732;-55
2021/08/02 09:44:05;;;;;;;2.47;2.28;;;20.10;99.90;;;;;;5053885;28;20270;-50
2021/08/02 09:46:31;;;;;;;2.60;2.40;;;20.10;99.90;;;;;;5055814;28;20183;-60
2021/08/02 09:49:02;;;;;;;2.35;2.17;;;20.10;99.90;;;;;;5072015;28;20245;-61
2021/08/02 09:51:45;;;;;;;3.60;2.33;;;20.30;99.90;;;;;;5053234;28;20223;-55
2021/08/02 09:54:26;;;;;;;2.63;2.20;;;20.70;99.90;;;;;;5080741;28;20208;-56
2021/08/02 09:56:52;;;;;;;2.72;2.03;;;20.80;99.90;;;;;;5053745;28;20172;-63
2021/08/02 09:59:19;;;;;;;2.03;1.90;;;20.80;99.90;;;;;;5053815;28;20700;-55
2021/08/02 10:01:47;;;;;;;2.30;2.10;;;21.00;99.90;;;;;;5052933;28;20198;-52
2021/08/02 10:04:14;;;;;;;2.40;2.20;;;21.30;99.90;;;;;;5055471;28;20243;-59
2021/08/02 10:06:40;;;;;;;3.47;2.28;;;21.30;99.90;;;;;;5055885;28;20284;-50
2021/08/02 10:09:07;;;;;;;3.25;2.05;;;21.20;99.90;;;;;;5058850;28;20205;-52
2021/08/02 10:11:33;;;;;;;4.18;1.88;;;21.10;99.90;;;;;;5057520;28;20218;-54
2021/08/02 10:13:59;;;;;;;1.77;1.67;;;20.90;99.90;;;;;;5066725;28;20330;-54
2021/08/02 10:16:27;;;;;;;7.03;2.30;;;21.20;99.90;;;;;;5065556;28;20268;-61
2021/08/02 10:19:00;;;;;;;4.72;2.00;;;21.30;99.90;;;;;;5066853;28;20262;-56
2021/08/02 10:21:39;;;;;;;2.78;2.00;;;21.30;99.90;;;;;;5072831;28;20170;-52
2021/08/02 10:24:13;;;;;;;5.85;1.90;;;21.00;99.90;;;;;;5070289;28;20209;-54
2021/08/02 10:26:39;;;;;;;2.38;1.80;;;20.80;99.90;;;;;;5058456;28;20277;-63
2021/08/02 10:29:07;;;;;;;2.35;2.15;;;20.90;99.90;;;;;;5083834;28;20213;-62
2021/08/02 10:31:48;;;;;;;3.25;2.00;;;21.30;99.90;;;;;;5068131;28;20203;-61
2021/08/02 10:34:18;;;;;;;1.73;1.60;;;21.80;99.90;;;;;;5067133;28;20190;-59
2021/08/02 10:37:05;;;;;;;2.15;1.85;;;21.90;99.90;;;;;;5065592;28;20156;-61
2021/08/02 10:39:33;;;;;;;2.20;2.00;;;21.90;99.90;;;;;;5069659;28;20623;-63
2021/08/02 10:42:06;;;;;;;3.20;2.08;;;22.30;99.90;;;;;;5064323;28;20167;-56
2021/08/02 10:44:31;;;;;;;3.75;1.88;;;22.60;99.90;;;;;;5065830;28;20195;-63
2021/08/02 10:47:01;;;;;;;2.97;1.90;;;22.70;99.90;;;;;;5064463;28;20269;-63
2021/08/02 10:49:27;;;;;;;2.13;1.92;;;22.70;99.90;;;;;;5067054;28;20183;-62
2021/08/02 10:51:57;;;;;;;2.83;1.40;;;23.00;99.90;;;;;;5068976;28;20241;-58
2021/08/02 10:54:24;;;;;;;1.92;1.70;;;23.20;99.90;;;;;;5069039;28;20223;-58
2021/08/02 10:56:50;;;;;;;1.90;1.27;;;23.30;99.90;;;;;;5064719;28;20162;-52
2021/08/02 10:59:20;;;;;;;2.55;1.30;;;23.40;99.90;;;;;;5069329;28;20213;-61
2021/08/02 11:01:48;;;;;;;2.78;1.50;;;23.80;99.90;;;;;;5065935;28;20174;-59
2021/08/02 11:04:17;;;;;;;1.77;1.60;;;24.20;99.90;;;;;;5067729;28;20207;-62
2021/08/02 11:06:44;;;;;;;1.77;1.52;;;24.30;99.90;;;;;;5067055;28;20170;-60
2021/08/02 11:09:10;;;;;;;1.77;1.45;;;24.40;99.90;;;;;;5061571;28;20195;-55
2021/08/02 11:11:37;;;;;;;2.88;1.60;;;24.00;99.90;;;;;;5054492;28;20210;-62
2021/08/02 11:14:12;;;;;;;3.97;1.90;;;23.80;99.90;;;;;;5055918;28;20597;-61
2021/08/02 11:16:46;;;;;;;1.67;1.58;;;23.50;99.90;;;;;;5055156;28;20179;-60
2021/08/02 11:19:20;;;;;;;2.75;1.70;;;23.10;99.90;;;;;;5056838;28;20186;-61
2021/08/02 11:21:47;;;;;;;2.75;1.55;;;22.90;99.90;;;;;;5055968;28;20306;-61
2021/08/02 11:24:13;;;;;;;3.17;1.70;;;22.70;99.90;;;;;;5055191;28;20196;-60
2021/08/02 11:26:53;;;;;;;2.35;1.90;;;22.70;99.90;;;;;;5055819;28;20182;-58
2021/08/02 11:29:26;;;;;;;2.03;1.80;;;22.50;99.90;;;;;;5055685;28;20262;-56
2021/08/02 11:32:10;;;;;;;3.22;1.70;;;22.80;99.90;;;;;;5062109;28;20218;-61
2021/08/02 11:34:39;;;;;;;2.85;1.80;;;22.70;99.90;;;;;;5054956;28;20254;-51
2021/08/02 11:37:10;;;;;;;2.90;1.80;;;22.90;99.90;;;;;;5054628;28;20168;-63
2021/08/02 11:39:41;;;;;;;2.60;1.50;;;23.00;99.90;;;;;;5054724;28;20174;-62
2021/08/02 11:42:16;;;;;;;2.20;1.90;;;22.70;99.90;;;;;;5055369;28;20262;-60
2021/08/02 11:44:48;;;;;;;3.42;2.60;;;22.20;99.90;;;;;;5054843;28;20212;-52
2021/08/02 11:47:20;;;;;;;3.13;2.08;;;22.20;99.90;;;;;;5053981;28;20202;-62
2021/08/02 11:49:47;;;;;;;5.18;2.25;;;22.10;99.90;;;;;;5055224;28;20646;-60
2021/08/02 11:52:17;;;;;;;2.40;1.90;;;22.20;99.90;;;;;;5053626;28;20221;-63
2021/08/02 11:54:47;;;;;;;3.63;2.20;;;22.20;99.90;;;;;;5055334;28;20228;-52
2021/08/02 11:57:22;;;;;;;4.07;1.90;;;22.00;99.90;;;;;;5055507;28;20175;-61
2021/08/02 11:59:56;;;;;;;3.40;1.80;;;22.00;99.90;;;;;;5056195;28;20669;-63
2021/08/02 12:02:36;;;;;;;2.20;2.00;;;22.00;99.90;;;;;;5055459;28;20190;-54
2021/08/02 12:05:04;;;;;;;2.45;2.13;;;21.90;99.90;;;;;;5056222;28;20236;-62
2021/08/02 12:07:33;;;;;;;3.55;2.08;;;21.80;99.90;;;;;;5054901;28;20179;-61
2021/08/02 12:10:18;;;;;;;2.35;2.10;;;21.70;99.90;;;;;;5055344;28;20221;-57
2021/08/02 12:12:55;;;;;;;2.63;1.70;;;21.80;99.90;;;;;;5055741;28;20214;-52
2021/08/02 12:15:20;;;;;;;1.85;1.75;;;21.90;99.90;;;;;;5055114;28;20167;-59
2021/08/02 12:17:51;;;;;;;4.13;2.00;;;22.00;99.90;;;;;;5056096;28;20179;-51
2021/08/02 12:20:30;;;;;;;5.53;1.73;;;22.20;99.90;;;;;;5054642;28;20179;-57
2021/08/02 12:22:56;;;;;;;3.63;2.05;;;22.60;99.90;;;;;;5055365;28;20187;-61
2021/08/02 12:25:33;;;;;;;2.72;2.05;;;22.90;99.90;;;;;;5054328;28;20270;-53
2021/08/02 12:28:00;;;;;;;2.17;2.00;;;23.10;99.90;;;;;;5053428;28;20167;-53
2021/08/02 12:30:27;;;;;;;1.75;1.55;;;22.90;99.90;;;;;;5055384;28;20272;-59
2021/08/02 12:32:52;;;;;;;4.13;1.85;;;22.90;99.90;;;;;;5059439;28;20203;-62
2021/08/02 12:35:19;;;;;;;2.50;1.88;;;22.70;99.90;;;;;;5063932;28;20167;-63
2021/08/02 12:37:45;;;;;;;3.22;1.73;;;22.60;99.90;;;;;;5067383;28;20181;-63
2021/08/02 12:40:13;;;;;;;3.60;1.60;;;22.80;99.90;;;;;;5067239;28;20193;-61
2021/08/02 12:42:47;;;;;;;1.75;1.52;;;22.80;99.90;;;;;;5074278;28;20178;-54
2021/08/02 12:45:14;;;;;;;2.40;2.20;;;22.80;99.90;;;;;;5074892;28;20171;-63
2021/08/02 12:47:40;;;;;;;2.20;2.10;;;22.30;99.90;;;;;;5075358;28;20170;-63
2021/08/02 12:50:08;;;;;;;3.05;2.30;;;22.10;99.90;;;;;;5073719;28;20162;-51
2021/08/02 12:52:34;;;;;;;3.83;2.42;;;21.90;99.90;;;;;;5070349;28;20194;-63